createdAt,value
2018-05-16T00:01:21.654Z,55.10
2018-05-16T00:03:50.874Z,55.10
2018-05-16T00:06:20.945Z,55.20
2018-05-16T00:08:50.971Z,55.60
2018-05-16T00:11:21.542Z,55.70
2018-05-16T00:13:51.519Z,55.90
2018-05-16T00:16:21.979Z,55.60
2018-05-16T00:18:51.974Z,55.70
2018-05-16T00:21:24.042Z,55.40
2018-05-16T00:23:56.442Z,55.40
2018-05-16T00:26:27.234Z,55.60
2018-05-16T00:28:56.354Z,55.50
2018-05-16T00:31:26.278Z,55.70
2018-05-16T00:33:56.187Z,56.80
2018-05-16T00:36:27.230Z,56.50
2018-05-16T00:38:58.162Z,57.20
2018-05-16T00:41:27.377Z,57.40
2018-05-16T00:43:59.273Z,57.80
2018-05-16T00:46:30.453Z,58.00
2018-05-16T00:49:02.372Z,57.80
2018-05-16T00:51:32.474Z,58.10
2018-05-16T00:54:06.094Z,57.90
2018-05-16T00:56:36.988Z,58.10
2018-05-16T00:59:07.189Z,57.70
2018-05-16T01:01:37.268Z,57.80
2018-05-16T01:04:09.498Z,57.80
2018-05-16T01:06:40.655Z,58.00
2018-05-16T01:09:09.878Z,57.70
2018-05-16T01:11:39.489Z,58.10
2018-05-16T01:14:10.383Z,58.30
2018-05-16T01:16:39.222Z,58.20
2018-05-16T01:19:08.059Z,58.40
2018-05-16T01:21:39.191Z,58.60
2018-05-16T01:24:10.015Z,59.00
2018-05-16T01:26:39.650Z,59.10
2018-05-16T01:29:10.225Z,59.10
2018-05-16T01:31:39.466Z,59.10
2018-05-16T01:34:09.993Z,59.10
2018-05-16T01:36:41.143Z,59.10
2018-05-16T01:39:10.766Z,59.00
2018-05-16T01:41:39.611Z,59.10
2018-05-16T01:44:09.825Z,58.80
2018-05-16T01:46:40.558Z,58.70
2018-05-16T01:49:21.446Z,58.70
2018-05-16T01:51:51.174Z,58.90
2018-05-16T01:54:22.654Z,59.00
2018-05-16T01:56:53.694Z,58.90
2018-05-16T01:59:23.807Z,59.00
2018-05-16T02:01:54.788Z,59.00
2018-05-16T02:04:26.482Z,58.90
2018-05-16T02:06:57.042Z,58.80
2018-05-16T02:09:26.663Z,58.90
2018-05-16T02:11:56.967Z,58.90
2018-05-16T02:14:27.562Z,59.50
2018-05-16T02:16:57.942Z,58.80
2018-05-16T02:19:27.373Z,58.90
2018-05-16T02:21:57.177Z,58.80
2018-05-16T02:24:28.523Z,59.00
2018-05-16T02:26:58.123Z,59.00
2018-05-16T02:29:28.463Z,59.00
2018-05-16T02:31:59.402Z,58.90
2018-05-16T02:34:30.142Z,58.80
2018-05-16T02:37:01.258Z,58.80
2018-05-16T02:39:30.588Z,58.60
2018-05-16T02:42:03.181Z,59.00
2018-05-16T02:44:33.878Z,59.30
2018-05-16T02:47:05.933Z,59.30
2018-05-16T02:49:36.382Z,59.50
2018-05-16T02:52:05.499Z,59.50
2018-05-16T02:54:35.340Z,59.50
2018-05-16T02:57:05.443Z,59.60
2018-05-16T02:59:37.608Z,59.30
2018-05-16T03:02:08.259Z,59.50
2018-05-16T03:04:38.303Z,59.70
2018-05-16T03:07:09.733Z,59.70
2018-05-16T03:09:40.219Z,60.40
2018-05-16T03:12:10.207Z,60.60
2018-05-16T03:14:40.255Z,60.50
2018-05-16T03:17:12.034Z,60.60
2018-05-16T03:19:41.256Z,61.60
2018-05-16T03:22:11.141Z,60.80
2018-05-16T03:24:40.958Z,61.00
2018-05-16T03:27:11.215Z,61.00
2018-05-16T03:29:42.954Z,60.70
2018-05-16T03:32:12.995Z,60.60
2018-05-16T03:34:45.334Z,60.80
2018-05-16T03:37:16.461Z,60.80
2018-05-16T03:39:49.031Z,60.90
2018-05-16T03:42:19.267Z,61.10
2018-05-16T03:44:50.504Z,61.20
2018-05-16T03:47:21.754Z,61.20
2018-05-16T03:49:53.270Z,61.10
2018-05-16T03:52:23.879Z,61.50
2018-05-16T03:54:53.833Z,61.80
2018-05-16T03:57:35.512Z,62.00
2018-05-16T04:00:17.198Z,62.20
2018-05-16T04:02:59.438Z,62.40
2018-05-16T04:05:28.282Z,62.30
2018-05-16T04:07:57.123Z,62.50
2018-05-16T04:10:25.958Z,62.60
2018-05-16T04:12:55.081Z,62.80
2018-05-16T04:15:24.685Z,62.60
2018-05-16T04:17:54.362Z,63.00
2018-05-16T04:20:23.575Z,62.80
2018-05-16T04:22:52.403Z,62.90
2018-05-16T04:25:21.706Z,63.00
2018-05-16T04:27:50.906Z,63.10
2018-05-16T04:30:21.490Z,63.90
2018-05-16T04:32:51.366Z,64.10
2018-05-16T04:35:23.142Z,63.20
2018-05-16T04:37:52.002Z,63.30
2018-05-16T04:40:22.242Z,62.70
2018-05-16T04:42:51.873Z,61.30
2018-05-16T04:45:21.934Z,60.80
2018-05-16T04:47:51.148Z,60.90
2018-05-16T04:50:19.973Z,60.60
2018-05-16T04:52:49.096Z,61.20
2018-05-16T04:55:17.894Z,62.10
2018-05-16T04:57:50.214Z,62.50
2018-05-16T05:00:24.077Z,60.30
2018-05-16T05:02:52.920Z,60.50
2018-05-16T05:05:23.094Z,60.40
2018-05-16T05:07:53.138Z,60.40
2018-05-16T05:10:24.560Z,60.60
2018-05-16T05:12:55.974Z,60.30
2018-05-16T05:15:24.817Z,60.10
2018-05-16T05:17:57.702Z,60.00
2018-05-16T05:20:26.542Z,59.80
2018-05-16T05:22:55.390Z,59.60
2018-05-16T05:25:24.243Z,59.50
2018-05-16T05:27:53.062Z,59.30
2018-05-16T05:30:21.956Z,58.90
2018-05-16T05:32:51.720Z,58.50
2018-05-16T05:35:20.684Z,58.50
2018-05-16T05:37:51.597Z,58.40
2018-05-16T05:40:23.085Z,58.00
2018-05-16T05:42:52.246Z,58.00
2018-05-16T05:45:21.558Z,58.10
2018-05-16T05:47:52.881Z,57.60
2018-05-16T05:50:21.937Z,57.70
2018-05-16T05:52:51.816Z,57.50
2018-05-16T05:55:22.346Z,57.20
2018-05-16T05:57:52.947Z,56.70
2018-05-16T06:00:22.084Z,56.70
2018-05-16T06:02:52.702Z,55.30
2018-05-16T06:05:22.872Z,54.90
2018-05-16T06:07:52.842Z,54.90
2018-05-16T06:10:22.687Z,54.30
2018-05-16T06:12:52.502Z,53.40
2018-05-16T06:15:23.269Z,53.50
2018-05-16T06:17:53.255Z,53.50
2018-05-16T06:20:23.206Z,53.70
2018-05-16T06:22:53.298Z,53.70
2018-05-16T06:25:25.034Z,53.80
2018-05-16T06:27:56.393Z,53.80
2018-05-16T06:30:25.514Z,53.40
2018-05-16T06:32:57.337Z,53.30
2018-05-16T06:35:28.562Z,53.00
2018-05-16T06:37:57.614Z,52.90
2018-05-16T06:40:28.454Z,52.50
2018-05-16T06:42:58.234Z,52.60
2018-05-16T06:45:28.958Z,52.40
2018-05-16T06:47:57.771Z,52.10
2018-05-16T06:50:28.051Z,52.00
2018-05-16T06:52:59.414Z,51.90
2018-05-16T06:55:30.402Z,51.80
2018-05-16T06:58:02.428Z,51.50
2018-05-16T07:00:33.387Z,51.50
2018-05-16T07:03:02.210Z,51.10
2018-05-16T07:05:31.297Z,51.10
2018-05-16T07:08:00.167Z,50.80
2018-05-16T07:10:30.034Z,50.40
2018-05-16T07:12:59.849Z,50.60
2018-05-16T07:15:31.813Z,50.00
2018-05-16T07:18:01.222Z,49.90
2018-05-16T07:20:32.737Z,49.50
2018-05-16T07:23:01.982Z,49.40
2018-05-16T07:25:33.498Z,48.60
2018-05-16T07:28:02.361Z,48.40
2018-05-16T07:30:31.331Z,48.50
2018-05-16T07:33:01.703Z,48.50
2018-05-16T07:35:30.523Z,48.30
2018-05-16T07:38:00.569Z,47.90
2018-05-16T07:40:31.366Z,48.20
2018-05-16T07:43:00.226Z,48.10
2018-05-16T07:45:30.262Z,47.80
2018-05-16T07:48:01.554Z,47.70
2018-05-16T07:50:31.803Z,47.70
2018-05-16T07:53:01.619Z,47.20
2018-05-16T07:55:33.826Z,47.30
2018-05-16T07:58:02.641Z,47.30
2018-05-16T08:00:32.905Z,47.00
2018-05-16T08:03:04.901Z,46.60
2018-05-16T08:05:34.036Z,46.50
2018-05-16T08:08:02.859Z,46.70
2018-05-16T08:10:31.702Z,46.00
2018-05-16T08:13:03.163Z,45.50
2018-05-16T08:15:33.903Z,45.40
2018-05-16T08:18:02.955Z,45.40
2018-05-16T08:20:33.937Z,45.10
2018-05-16T08:23:04.018Z,45.00
2018-05-16T08:25:35.450Z,44.30
2018-05-16T08:28:08.603Z,43.40
2018-05-16T08:30:37.775Z,43.40
2018-05-16T08:33:09.409Z,43.30
2018-05-16T08:35:38.274Z,43.20
2018-05-16T08:38:09.786Z,43.50
2018-05-16T08:40:38.594Z,43.10
2018-05-16T08:43:09.871Z,42.80
2018-05-16T08:45:38.919Z,42.80
2018-05-16T08:48:08.507Z,41.80
2018-05-16T08:50:38.335Z,41.70
2018-05-16T08:53:08.827Z,40.20
2018-05-16T08:55:38.582Z,39.60
2018-05-16T08:58:10.186Z,39.50
2018-05-16T09:00:40.958Z,39.50
2018-05-16T09:03:10.078Z,39.20
2018-05-16T09:05:41.590Z,36.90
2018-05-16T09:08:12.301Z,36.80
2018-05-16T09:10:42.364Z,36.10
2018-05-16T09:13:11.356Z,35.70
2018-05-16T09:15:40.420Z,35.30
2018-05-16T09:18:10.614Z,34.50
2018-05-16T09:20:41.931Z,33.50
2018-05-16T09:23:11.814Z,33.30
2018-05-16T09:25:43.151Z,32.10
2018-05-16T09:28:14.034Z,32.80
2018-05-16T09:30:44.098Z,32.10
2018-05-16T09:33:14.011Z,31.70
2018-05-16T09:35:44.810Z,31.40
2018-05-16T09:38:16.570Z,31.10
2018-05-16T09:40:46.530Z,30.90
2018-05-16T09:43:18.137Z,29.80
2018-05-16T09:45:47.926Z,29.80
2018-05-16T09:48:16.930Z,30.20
2018-05-16T09:50:48.152Z,29.90
2018-05-16T09:53:17.982Z,29.90
2018-05-16T09:55:47.883Z,29.90
2018-05-16T09:58:19.031Z,29.90
2018-05-16T10:00:51.869Z,29.50
2018-05-16T10:03:20.694Z,29.40
2018-05-16T10:05:49.514Z,30.00
2018-05-16T10:08:19.117Z,29.40
2018-05-16T10:10:48.720Z,30.00
2018-05-16T10:13:17.968Z,30.00
2018-05-16T10:15:46.801Z,29.50
2018-05-16T10:18:15.877Z,29.80
2018-05-16T10:20:45.471Z,31.00
2018-05-16T10:23:14.591Z,30.40
2018-05-16T10:25:43.791Z,29.30
2018-05-16T10:28:12.612Z,29.60
2018-05-16T10:30:41.456Z,28.50
2018-05-16T10:33:10.270Z,28.40
2018-05-16T10:35:39.081Z,29.40
2018-05-16T10:38:07.966Z,29.60
2018-05-16T10:40:36.838Z,29.40
2018-05-16T10:43:05.927Z,28.40
2018-05-16T10:45:34.739Z,28.30
2018-05-16T10:48:03.602Z,27.90
2018-05-16T10:50:32.428Z,28.40
2018-05-16T10:53:02.066Z,27.90
2018-05-16T10:55:30.984Z,27.90
2018-05-16T10:58:00.046Z,28.60
2018-05-16T11:00:28.926Z,28.40
2018-05-16T11:02:58.808Z,27.90
2018-05-16T11:05:28.062Z,27.90
2018-05-16T11:07:56.911Z,28.30
2018-05-16T11:10:25.852Z,28.30
2018-05-16T11:12:55.794Z,27.40
2018-05-16T11:15:24.602Z,27.30
2018-05-16T11:17:54.216Z,27.50
2018-05-16T11:20:23.791Z,27.10
2018-05-16T11:22:52.922Z,27.10
2018-05-16T11:25:22.593Z,27.50
2018-05-16T11:27:51.424Z,27.30
2018-05-16T11:30:21.026Z,27.90
2018-05-16T11:32:49.887Z,27.90
2018-05-16T11:35:19.434Z,27.90
2018-05-16T11:37:48.270Z,28.00
2018-05-16T11:40:17.118Z,27.70
2018-05-16T11:42:45.935Z,27.50
2018-05-16T11:45:15.582Z,27.40
2018-05-16T11:47:44.546Z,27.40
2018-05-16T11:50:14.577Z,26.50
2018-05-16T11:52:44.697Z,26.10
2018-05-16T11:55:13.582Z,25.90
2018-05-16T11:57:43.267Z,26.20
2018-05-16T12:00:12.175Z,26.10
2018-05-16T12:02:41.203Z,26.20
2018-05-16T12:05:10.061Z,25.80
2018-05-16T12:07:39.333Z,25.10
2018-05-16T12:10:08.281Z,25.40
2018-05-16T12:12:37.538Z,25.80
2018-05-16T12:15:06.522Z,25.90
2018-05-16T12:17:35.413Z,25.40
2018-05-16T12:20:04.378Z,25.60
2018-05-16T12:22:34.015Z,26.20
2018-05-16T12:25:03.200Z,26.20
2018-05-16T12:27:32.072Z,26.10
2018-05-16T12:30:01.748Z,26.20
2018-05-16T12:32:30.631Z,26.10
2018-05-16T12:34:59.487Z,26.40
2018-05-16T12:37:29.600Z,27.10
2018-05-16T12:39:59.640Z,27.10
2018-05-16T12:42:28.855Z,27.10
2018-05-16T12:44:57.690Z,27.20
2018-05-16T12:47:26.623Z,28.00
2018-05-16T12:49:55.846Z,27.50
2018-05-16T12:52:24.753Z,27.40
2018-05-16T12:54:53.617Z,27.40
2018-05-16T12:57:22.922Z,27.40
2018-05-16T12:59:52.693Z,27.90
2018-05-16T13:02:21.614Z,27.60
2018-05-16T13:04:50.503Z,27.50
2018-05-16T13:07:19.732Z,28.20
2018-05-16T13:09:49.435Z,27.80
2018-05-16T13:12:19.055Z,27.90
2018-05-16T13:14:50.018Z,27.60
2018-05-16T13:17:18.908Z,27.60
2018-05-16T13:19:47.890Z,27.20
2018-05-16T13:22:16.782Z,27.20
2018-05-16T13:24:46.897Z,26.70
2018-05-16T13:27:16.571Z,26.70
2018-05-16T13:29:45.569Z,26.60
2018-05-16T13:32:14.439Z,26.60
2018-05-16T13:34:43.356Z,26.90
2018-05-16T13:37:13.253Z,26.10
2018-05-16T13:39:42.121Z,26.00
2018-05-16T13:42:11.038Z,26.20
2018-05-16T13:44:39.982Z,25.90
2018-05-16T13:47:09.155Z,26.10
2018-05-16T13:49:38.099Z,25.60
2018-05-16T13:52:07.748Z,26.70
2018-05-16T13:54:36.603Z,26.70
2018-05-16T13:57:06.296Z,26.10
2018-05-16T13:59:35.283Z,25.50
2018-05-16T14:02:04.258Z,24.90
2018-05-16T14:04:33.115Z,24.70
2018-05-16T14:07:02.758Z,23.90
2018-05-16T14:09:32.890Z,23.90
2018-05-16T14:12:01.790Z,23.80
2018-05-16T14:14:30.719Z,23.70
2018-05-16T14:17:00.376Z,25.50
2018-05-16T14:19:29.414Z,25.50
2018-05-16T14:21:58.283Z,25.60
2018-05-16T14:24:30.163Z,25.90
2018-05-16T14:26:59.077Z,25.90
2018-05-16T14:29:27.948Z,25.90
2018-05-16T14:31:57.161Z,25.80
2018-05-16T14:34:26.375Z,25.50
2018-05-16T14:36:55.241Z,25.80
2018-05-16T14:39:24.339Z,26.00
2018-05-16T14:41:53.370Z,25.90
2018-05-16T14:44:22.730Z,26.00
2018-05-16T14:46:51.599Z,26.10
2018-05-16T14:49:20.567Z,26.20
2018-05-16T14:51:50.310Z,26.80
2018-05-16T14:54:19.248Z,26.70
2018-05-16T14:56:48.126Z,26.70
2018-05-16T14:59:17.041Z,27.20
2018-05-16T15:01:46.382Z,26.90
2018-05-16T15:04:15.613Z,26.70
2018-05-16T15:06:45.263Z,25.80
2018-05-16T15:09:14.164Z,25.80
2018-05-16T15:11:42.998Z,26.00
2018-05-16T15:14:12.698Z,25.30
2018-05-16T15:16:41.958Z,25.30
2018-05-16T15:19:10.862Z,25.40
2018-05-16T15:21:40.382Z,25.30
2018-05-16T15:24:09.237Z,24.90
2018-05-16T15:26:38.085Z,25.10
2018-05-16T15:29:07.234Z,25.20
2018-05-16T15:31:36.107Z,25.30
2018-05-16T15:34:06.249Z,25.50
2018-05-16T15:36:35.169Z,25.50
2018-05-16T15:39:04.208Z,25.70
2018-05-16T15:41:33.050Z,26.00
2018-05-16T15:44:02.013Z,26.10
2018-05-16T15:46:31.651Z,26.70
2018-05-16T15:49:00.621Z,26.60
2018-05-16T15:51:30.265Z,27.00
2018-05-16T15:53:59.157Z,27.00
2018-05-16T15:56:28.013Z,26.50
2018-05-16T15:58:57.690Z,26.70
2018-05-16T16:01:26.584Z,26.70
2018-05-16T16:03:55.466Z,26.90
2018-05-16T16:06:24.418Z,26.80
2018-05-16T16:08:53.540Z,26.90
2018-05-16T16:11:22.400Z,27.40
2018-05-16T16:13:51.410Z,27.50
2018-05-16T16:16:20.648Z,27.20
2018-05-16T16:18:49.537Z,26.90
2018-05-16T16:21:19.462Z,26.50
2018-05-16T16:23:48.394Z,26.50
2018-05-16T16:26:17.606Z,26.50
2018-05-16T16:28:46.475Z,26.40
2018-05-16T16:31:15.346Z,26.60
2018-05-16T16:33:44.232Z,26.50
2018-05-16T16:36:13.122Z,26.60
2018-05-16T16:38:41.981Z,26.80
2018-05-16T16:41:10.855Z,26.90
2018-05-16T16:43:39.779Z,26.90
2018-05-16T16:46:09.442Z,26.50
2018-05-16T16:48:38.303Z,26.50
2018-05-16T16:51:07.208Z,26.60
2018-05-16T16:53:36.076Z,26.70
2018-05-16T16:56:04.979Z,27.30
2018-05-16T16:58:34.630Z,27.50
2018-05-16T17:01:03.505Z,27.50
2018-05-16T17:03:32.394Z,27.60
2018-05-16T17:06:01.349Z,27.80
2018-05-16T17:08:30.611Z,28.00
2018-05-16T17:10:59.579Z,28.10
2018-05-16T17:13:29.259Z,28.30
2018-05-16T17:15:58.544Z,28.30
2018-05-16T17:18:27.403Z,27.50
2018-05-16T17:20:57.468Z,27.40
2018-05-16T17:23:27.561Z,27.40
2018-05-16T17:25:56.874Z,27.30
2018-05-16T17:28:25.743Z,27.50
2018-05-16T17:30:54.600Z,27.50
2018-05-16T17:33:23.473Z,27.70
2018-05-16T17:35:52.393Z,28.00
2018-05-16T17:38:21.246Z,28.00
2018-05-16T17:40:50.206Z,28.10
2018-05-16T17:43:19.103Z,28.30
2018-05-16T17:45:48.892Z,28.10
2018-05-16T17:48:17.831Z,28.10
2018-05-16T17:50:46.691Z,28.00
2018-05-16T17:53:15.751Z,28.00
2018-05-16T17:55:44.769Z,28.10
2018-05-16T17:58:14.110Z,28.10
2018-05-16T18:00:43.044Z,27.90
2018-05-16T18:03:11.971Z,27.70
2018-05-16T18:05:40.937Z,27.60
2018-05-16T18:08:09.780Z,27.70
2018-05-16T18:10:39.848Z,28.00
2018-05-16T18:16:32.385Z,27.80
2018-05-16T18:19:01.659Z,27.90
2018-05-16T18:21:31.326Z,28.40
2018-05-16T18:24:00.270Z,28.30
2018-05-16T18:26:29.395Z,28.40
2018-05-16T18:28:59.387Z,28.80
2018-05-16T18:31:29.067Z,28.90
2018-05-16T18:33:57.967Z,28.90
2018-05-16T18:36:26.930Z,29.20
2018-05-16T18:38:55.886Z,29.20
2018-05-16T18:41:25.590Z,29.40
2018-05-16T18:43:54.449Z,29.40
2018-05-16T18:46:23.354Z,29.30
2018-05-16T18:48:52.239Z,29.40
2018-05-16T18:51:21.110Z,29.70
2018-05-16T18:53:50.143Z,30.20
2018-05-16T18:56:19.060Z,30.60
2018-05-16T18:58:47.968Z,31.00
2018-05-16T19:01:17.656Z,30.90
2018-05-16T19:03:46.794Z,30.80
2018-05-16T19:06:17.370Z,30.70
2018-05-16T19:08:47.656Z,31.00
2018-05-16T19:11:16.567Z,31.00
2018-05-16T19:13:45.541Z,30.90
2018-05-16T19:16:15.310Z,31.20
2018-05-16T19:18:44.227Z,31.20
2018-05-16T19:21:13.127Z,31.40
2018-05-16T19:23:42.078Z,31.80
2018-05-16T19:26:10.965Z,32.40
2018-05-16T19:28:39.839Z,32.40
2018-05-16T19:31:09.857Z,32.70
2018-05-16T19:33:38.716Z,32.60
2018-05-16T19:36:07.571Z,32.60
2018-05-16T19:38:36.500Z,32.40
2018-05-16T19:41:05.836Z,32.60
2018-05-16T19:43:35.485Z,33.70
2018-05-16T19:46:04.583Z,33.70
2018-05-16T19:48:34.536Z,34.10
2018-05-16T19:51:03.511Z,34.20
2018-05-16T19:53:32.505Z,34.60
2018-05-16T19:56:02.196Z,34.90
2018-05-16T19:58:31.165Z,34.90
2018-05-16T20:01:00.180Z,35.00
2018-05-16T20:03:30.009Z,35.10
2018-05-16T20:05:58.956Z,35.30
2018-05-16T20:08:27.981Z,36.20
2018-05-16T20:10:57.583Z,37.40
2018-05-16T20:13:26.625Z,37.40
2018-05-16T20:15:55.491Z,38.00
2018-05-16T20:18:25.068Z,37.40
2018-05-16T20:20:53.912Z,37.40
2018-05-16T20:23:22.861Z,36.90
2018-05-16T20:25:51.686Z,36.80
2018-05-16T20:28:21.393Z,37.30
2018-05-16T20:30:51.114Z,38.10
2018-05-16T20:33:20.317Z,37.50
2018-05-16T20:35:49.931Z,36.90
2018-05-16T20:38:19.590Z,37.30
2018-05-16T20:40:48.508Z,37.40
2018-05-16T20:43:17.327Z,37.80
2018-05-16T20:45:46.610Z,38.30
2018-05-16T20:48:15.442Z,38.80
2018-05-16T20:50:44.666Z,39.50
2018-05-16T20:53:13.503Z,40.30
2018-05-16T20:55:42.314Z,40.90
2018-05-16T20:58:11.395Z,41.20
2018-05-16T21:00:40.282Z,41.40
2018-05-16T21:03:09.406Z,41.80
2018-05-16T21:05:38.585Z,42.30
2018-05-16T21:08:07.462Z,42.70
2018-05-16T21:10:36.273Z,42.70
2018-05-16T21:13:05.093Z,42.30
2018-05-16T21:15:34.763Z,41.40
2018-05-16T21:18:03.570Z,41.50
2018-05-16T21:20:32.451Z,41.10
2018-05-16T21:23:01.302Z,41.40
2018-05-16T21:25:30.131Z,41.70
2018-05-16T21:27:58.951Z,42.20
2018-05-16T21:30:27.818Z,42.50
2018-05-16T21:32:57.402Z,42.10
2018-05-16T21:35:26.245Z,42.00
2018-05-16T21:37:55.093Z,42.00
2018-05-16T21:40:23.904Z,42.60
2018-05-16T21:42:52.722Z,42.90
2018-05-16T21:45:21.576Z,42.60
2018-05-16T21:47:50.394Z,42.30
2018-05-16T21:50:19.203Z,41.90
2018-05-16T21:52:48.462Z,41.80
2018-05-16T21:55:17.319Z,41.90
2018-05-16T21:57:46.131Z,41.60
2018-05-16T22:00:15.851Z,41.20
2018-05-16T22:02:45.171Z,41.10
2018-05-16T22:05:14.000Z,40.40
2018-05-16T22:07:42.834Z,40.10
2018-05-16T22:10:13.006Z,40.00
2018-05-16T22:12:41.811Z,39.90
2018-05-16T22:15:10.671Z,40.00
2018-05-16T22:17:39.478Z,39.80
2018-05-16T22:20:08.322Z,39.90
2018-05-16T22:22:37.406Z,40.00
2018-05-16T22:25:06.450Z,40.10
2018-05-16T22:27:36.462Z,40.10
2018-05-16T22:30:04.790Z,40.10
2018-05-16T22:32:39.429Z,39.80
2018-05-16T22:35:14.322Z,39.80
2018-05-16T22:37:48.704Z,39.80
2018-05-16T22:40:24.058Z,40.30
2018-05-16T22:42:55.357Z,40.40
2018-05-16T22:45:41.963Z,40.50
2018-05-16T22:48:13.041Z,40.80
2018-05-16T22:50:42.683Z,41.40
2018-05-16T22:53:11.515Z,41.40
2018-05-16T22:55:40.323Z,41.70
2018-05-16T22:58:09.523Z,42.10
2018-05-16T23:00:38.342Z,42.50
2018-05-16T23:03:07.928Z,42.60
2018-05-16T23:05:36.826Z,42.60
2018-05-16T23:08:05.658Z,43.20
2018-05-16T23:10:35.755Z,43.90
2018-05-16T23:13:07.579Z,44.90
2018-05-16T23:15:38.579Z,45.10
2018-05-16T23:18:09.410Z,45.70
2018-05-16T23:20:39.153Z,46.50
2018-05-16T23:23:09.851Z,46.70
2018-05-16T23:25:42.024Z,47.00
2018-05-16T23:28:12.883Z,46.80
2018-05-16T23:30:43.884Z,46.90
2018-05-16T23:33:13.823Z,46.70
2018-05-16T23:35:45.364Z,47.00
2018-05-16T23:38:15.643Z,47.00
2018-05-16T23:40:45.758Z,47.00
2018-05-16T23:43:14.870Z,47.00
2018-05-16T23:45:46.663Z,46.90
2018-05-16T23:48:16.606Z,47.00
2018-05-16T23:50:48.658Z,47.80
2018-05-16T23:53:18.422Z,47.60
2018-05-16T23:55:48.242Z,50.60
2018-05-16T23:58:18.027Z,49.50
